Time;durP1;ratioP1;P1;durP2;ratioP2;P2;SDS_P1;SDS_P2;PMS_P1;PMS_P2;Temp;Humidity;BMP_temperature;BMP_pressure;BME280_temperature;BME280_humidity;BME280_pressure;Samples;Min_cycle;Max_cycle;Signal;HPM_P1;HPM_P2
2021/08/24 00:00:50;;;;;;;6.65;5.05;;;19.70;99.90;;;;;;4997930;28;20031;-86
2021/08/24 00:03:16;;;;;;;5.43;4.55;;;19.60;99.90;;;;;;4996123;28;20022;-86
2021/08/24 00:05:42;;;;;;;5.05;4.65;;;19.50;99.90;;;;;;5000136;28;20026;-86
2021/08/24 00:08:08;;;;;;;5.22;4.65;;;19.40;99.90;;;;;;4982289;28;20022;-86
2021/08/24 00:10:44;;;;;;;5.68;5.07;;;19.40;99.90;;;;;;4999605;28;20479;-86
2021/08/24 00:13:11;;;;;;;7.07;5.38;;;19.40;99.90;;;;;;4999578;28;20038;-87
2021/08/24 00:15:37;;;;;;;5.60;4.93;;;19.30;99.90;;;;;;4996864;28;20030;-86
2021/08/24 00:18:03;;;;;;;5.28;4.78;;;19.40;99.90;;;;;;4997763;28;20485;-87
2021/08/24 00:20:33;;;;;;;5.95;5.38;;;19.50;99.90;;;;;;4999036;28;20026;-86
2021/08/24 00:23:06;;;;;;;6.13;5.53;;;19.20;99.90;;;;;;4999355;28;20026;-87
2021/08/24 00:25:33;;;;;;;5.50;4.80;;;19.10;99.90;;;;;;4999228;28;20057;-86
2021/08/24 00:27:58;;;;;;;7.07;4.97;;;18.90;99.90;;;;;;4999037;28;20118;-87
2021/08/24 00:30:24;;;;;;;6.05;5.45;;;18.90;99.90;;;;;;4995604;28;20141;-86
2021/08/24 00:32:50;;;;;;;5.88;5.18;;;18.90;99.90;;;;;;4999290;28;20042;-86
2021/08/24 00:35:15;;;;;;;5.47;4.50;;;19.00;99.90;;;;;;4998990;28;20542;-86
2021/08/24 00:37:41;;;;;;;5.10;4.70;;;19.00;99.90;;;;;;4999017;28;20110;-86
2021/08/24 00:40:09;;;;;;;7.03;5.22;;;18.90;99.90;;;;;;4998944;28;20034;-86
2021/08/24 00:42:36;;;;;;;5.72;5.20;;;18.80;99.90;;;;;;4995545;28;20038;-87
2021/08/24 00:45:04;;;;;;;5.70;5.20;;;18.90;99.90;;;;;;4998039;28;20386;-86
2021/08/24 00:47:30;;;;;;;7.35;5.95;;;19.00;99.90;;;;;;4998152;28;20018;-86
2021/08/24 00:50:05;;;;;;;6.07;5.20;;;18.90;99.90;;;;;;4998743;28;20030;-86
2021/08/24 00:52:31;;;;;;;6.03;5.35;;;19.00;99.90;;;;;;4998654;28;20089;-86
2021/08/24 00:54:57;;;;;;;5.40;4.90;;;18.90;99.90;;;;;;4998769;28;20034;-86
2021/08/24 00:57:24;;;;;;;5.65;5.13;;;18.80;99.90;;;;;;4994822;28;20030;-87
2021/08/24 00:59:52;;;;;;;7.00;5.70;;;19.00;99.90;;;;;;4998874;28;20104;-86
2021/08/24 01:02:20;;;;;;;5.70;5.20;;;18.90;99.90;;;;;;4998449;28;20118;-87
2021/08/24 01:04:50;;;;;;;5.75;5.25;;;18.90;99.90;;;;;;4997418;28;20042;-86
2021/08/24 01:07:37;;;;;;;6.63;5.65;;;18.80;99.90;;;;;;4998727;28;20022;-87
2021/08/24 01:10:26;;;;;;;7.63;5.43;;;18.80;99.90;;;;;;4998387;28;20033;-86
2021/08/24 01:13:10;;;;;;;5.47;4.97;;;18.70;99.90;;;;;;4997242;28;20073;-87
2021/08/24 01:15:57;;;;;;;6.00;5.50;;;18.70;99.90;;;;;;4981442;28;20026;-86
2021/08/24 01:18:45;;;;;;;8.23;5.00;;;18.70;99.90;;;;;;4994450;28;20023;-86
2021/08/24 01:21:23;;;;;;;5.53;5.03;;;18.80;99.90;;;;;;5008277;28;20026;-86
2021/08/24 01:23:55;;;;;;;7.15;5.30;;;18.90;99.90;;;;;;4998447;28;20036;-86
2021/08/24 01:26:42;;;;;;;6.60;5.93;;;18.90;99.90;;;;;;4998034;28;20089;-86
2021/08/24 01:29:22;;;;;;;6.55;5.78;;;18.80;99.90;;;;;;4980637;28;20376;-86
2021/08/24 01:32:29;;;;;;;7.82;5.30;;;18.60;99.90;;;;;;4997615;28;20395;-86
2021/08/24 01:35:13;;;;;;;6.03;5.53;;;18.70;99.90;;;;;;4997851;28;20050;-86
2021/08/24 01:37:58;;;;;;;6.30;5.70;;;18.60;99.90;;;;;;4997744;28;20033;-86
2021/08/24 01:41:02;;;;;;;6.05;5.45;;;18.60;99.90;;;;;;4998258;28;20022;-86
2021/08/24 01:43:36;;;;;;;5.82;5.30;;;18.80;99.90;;;;;;4992842;28;20125;-87
2021/08/24 01:46:20;;;;;;;7.03;5.40;;;18.70;99.90;;;;;;4997727;28;20641;-87
2021/08/24 01:48:50;;;;;;;6.35;5.75;;;18.70;99.90;;;;;;4995664;28;20388;-86
2021/08/24 01:51:23;;;;;;;5.95;5.45;;;18.50;99.90;;;;;;4995008;28;20391;-86
2021/08/24 01:53:58;;;;;;;5.55;5.05;;;18.50;99.90;;;;;;4998636;28;20040;-86
2021/08/24 01:56:28;;;;;;;5.47;4.97;;;18.60;99.90;;;;;;4997820;28;20092;-86
2021/08/24 01:58:59;;;;;;;6.32;5.07;;;18.80;99.90;;;;;;4997376;28;20446;-86
2021/08/24 02:01:35;;;;;;;5.85;5.25;;;18.60;99.90;;;;;;4997105;28;20026;-87
2021/08/24 02:04:04;;;;;;;6.47;5.20;;;18.70;99.90;;;;;;4997316;28;20469;-87
2021/08/24 02:06:40;;;;;;;5.95;5.35;;;18.70;99.90;;;;;;4993589;28;20042;-86
2021/08/24 02:09:16;;;;;;;6.57;5.75;;;18.70;99.90;;;;;;4996376;28;20018;-86
2021/08/24 02:11:43;;;;;;;5.68;5.18;;;18.70;99.90;;;;;;4996427;28;20113;-87
2021/08/24 02:14:13;;;;;;;5.35;4.82;;;18.80;99.90;;;;;;4996843;28;20455;-86
2021/08/24 02:16:39;;;;;;;5.90;5.30;;;18.60;99.90;;;;;;4997225;28;20069;-86
2021/08/24 02:19:12;;;;;;;6.03;5.47;;;18.50;99.90;;;;;;4997248;28;20076;-87
2021/08/24 02:21:47;;;;;;;7.60;5.50;;;18.60;99.90;;;;;;4994561;28;20022;-86
2021/08/24 02:24:16;;;;;;;5.80;5.22;;;18.50;99.90;;;;;;4994352;28;20510;-87
2021/08/24 02:26:44;;;;;;;6.55;5.95;;;18.40;99.90;;;;;;4996102;28;20406;-86
2021/08/24 02:29:10;;;;;;;6.18;5.57;;;18.60;99.90;;;;;;4979368;28;20041;-87
2021/08/24 02:32:09;;;;;;;6.03;5.43;;;18.60;99.90;;;;;;4996944;28;20034;-86
2021/08/24 02:34:49;;;;;;;6.10;5.50;;;18.50;99.90;;;;;;4996950;28;20406;-86
2021/08/24 02:37:29;;;;;;;6.57;5.30;;;18.50;99.90;;;;;;4996693;28;20441;-86
2021/08/24 02:40:19;;;;;;;5.80;5.30;;;18.50;99.90;;;;;;4995983;28;20105;-86
2021/08/24 02:42:59;;;;;;;7.20;5.55;;;18.30;99.90;;;;;;4981921;28;20023;-86
2021/08/24 02:45:33;;;;;;;6.40;5.80;;;18.20;99.90;;;;;;4992954;28;20742;-87
2021/08/24 02:48:01;;;;;;;6.43;5.35;;;18.30;99.90;;;;;;5005057;28;20053;-86
2021/08/24 02:50:27;;;;;;;5.95;5.03;;;18.50;99.90;;;;;;4996846;28;20076;-87
2021/08/24 02:52:54;;;;;;;5.80;5.20;;;18.50;99.90;;;;;;4996535;28;20038;-87
2021/08/24 02:55:20;;;;;;;6.22;5.63;;;18.60;99.90;;;;;;4996296;28;20037;-87
2021/08/24 02:57:45;;;;;;;5.75;5.25;;;18.50;99.90;;;;;;4994066;28;20022;-87
2021/08/24 03:00:11;;;;;;;5.82;5.25;;;18.50;99.90;;;;;;4976606;28;20065;-87
2021/08/24 03:02:37;;;;;;;4.85;4.43;;;18.50;99.90;;;;;;4997321;28;20022;-86
2021/08/24 03:05:03;;;;;;;5.70;5.20;;;18.60;99.90;;;;;;4996312;28;20044;-86
2021/08/24 03:07:31;;;;;;;5.70;5.20;;;18.70;99.90;;;;;;4996485;28;20021;-86
2021/08/24 03:10:01;;;;;;;6.10;5.50;;;18.70;99.90;;;;;;4995843;28;20120;-87
2021/08/24 03:12:59;;;;;;;5.63;5.13;;;18.50;99.90;;;;;;4976367;28;20061;-86
2021/08/24 03:15:35;;;;;;;6.20;5.32;;;18.70;99.90;;;;;;5008142;28;20495;-86
2021/08/24 03:18:08;;;;;;;6.10;5.50;;;18.70;99.90;;;;;;5004974;28;20546;-86
2021/08/24 03:20:44;;;;;;;6.85;5.40;;;18.60;99.90;;;;;;4996087;28;20382;-86
2021/08/24 03:23:11;;;;;;;5.70;5.10;;;18.40;99.90;;;;;;4996103;28;20026;-86
2021/08/24 03:25:40;;;;;;;5.88;5.38;;;18.30;99.90;;;;;;4995908;28;20191;-86
2021/08/24 03:28:10;;;;;;;6.07;5.57;;;18.30;99.90;;;;;;4995309;28;20072;-86
2021/08/24 03:30:37;;;;;;;6.07;5.53;;;18.40;99.90;;;;;;4992550;28;20422;-86
2021/08/24 03:33:03;;;;;;;5.55;5.05;;;18.40;99.90;;;;;;4995053;28;20030;-87
2021/08/24 03:35:28;;;;;;;6.53;5.72;;;18.40;99.90;;;;;;4996100;28;20058;-86
2021/08/24 03:37:54;;;;;;;6.70;5.45;;;18.40;99.90;;;;;;4995858;28;20034;-86
2021/08/24 03:40:20;;;;;;;5.90;5.40;;;18.40;99.90;;;;;;4996540;28;20033;-87
2021/08/24 03:42:45;;;;;;;6.22;5.63;;;18.40;99.90;;;;;;4975938;28;20030;-86
2021/08/24 03:45:11;;;;;;;7.90;5.78;;;18.40;99.90;;;;;;4993722;28;20062;-86
2021/08/24 03:47:37;;;;;;;6.25;5.65;;;18.60;99.90;;;;;;4997123;28;20030;-86
2021/08/24 03:50:04;;;;;;;6.40;5.80;;;18.50;99.90;;;;;;4995872;28;20030;-87
2021/08/24 03:52:30;;;;;;;6.18;5.57;;;18.40;99.90;;;;;;4995584;28;20096;-86
2021/08/24 03:54:56;;;;;;;6.18;5.43;;;18.50;99.90;;;;;;4994960;28;20550;-86
2021/08/24 03:57:21;;;;;;;6.00;5.40;;;18.50;99.90;;;;;;4991887;28;20101;-87
2021/08/24 03:59:47;;;;;;;6.05;5.45;;;18.60;99.90;;;;;;4996889;28;20026;-86
2021/08/24 04:02:13;;;;;;;6.07;5.53;;;18.60;99.90;;;;;;4995725;28;20092;-86
2021/08/24 04:04:38;;;;;;;6.53;5.60;;;18.40;99.90;;;;;;4995677;28;20214;-87
2021/08/24 04:07:04;;;;;;;6.70;5.30;;;18.40;99.90;;;;;;4995722;28;20025;-86
2021/08/24 04:09:29;;;;;;;6.82;6.00;;;18.50;99.90;;;;;;4991257;28;20036;-86
2021/08/24 04:11:55;;;;;;;7.95;5.75;;;18.60;99.90;;;;;;4996216;28;20057;-86
2021/08/24 04:14:21;;;;;;;6.40;5.72;;;18.50;99.90;;;;;;4995471;28;20048;-87
2021/08/24 04:16:48;;;;;;;7.28;5.72;;;18.40;99.90;;;;;;4995573;28;20410;-86
2021/08/24 04:19:13;;;;;;;6.63;5.97;;;18.40;99.90;;;;;;4995515;28;20077;-87
2021/08/24 04:21:40;;;;;;;6.35;5.70;;;18.30;99.90;;;;;;4993225;28;20451;-87
2021/08/24 04:24:07;;;;;;;6.55;5.88;;;18.30;99.90;;;;;;4994011;28;20030;-86
2021/08/24 04:26:32;;;;;;;6.35;5.75;;;18.20;99.90;;;;;;4995952;28;20100;-86
2021/08/24 04:28:58;;;;;;;5.88;5.28;;;18.30;99.90;;;;;;4995422;28;20487;-86
2021/08/24 04:31:24;;;;;;;6.22;5.63;;;18.20;99.90;;;;;;4995376;28;20030;-87
2021/08/24 04:33:50;;;;;;;5.90;5.40;;;18.20;99.90;;;;;;4994664;28;20148;-87
2021/08/24 04:36:16;;;;;;;7.28;6.40;;;18.20;99.90;;;;;;4992266;28;20105;-86
2021/08/24 04:38:41;;;;;;;6.47;5.88;;;18.20;99.90;;;;;;4996206;28;20097;-87
2021/08/24 04:41:07;;;;;;;6.75;6.05;;;18.20;99.90;;;;;;4999359;28;20113;-86
2021/08/24 04:43:34;;;;;;;6.88;6.20;;;18.20;99.90;;;;;;4981212;28;20450;-86
2021/08/24 04:46:00;;;;;;;9.45;6.43;;;18.20;99.90;;;;;;4999011;28;20021;-86
2021/08/24 04:48:26;;;;;;;6.25;5.65;;;18.20;99.90;;;;;;4994642;28;20487;-85
2021/08/24 04:50:52;;;;;;;6.70;5.90;;;18.30;99.90;;;;;;4999990;28;20163;-86
2021/08/24 04:53:18;;;;;;;6.47;5.93;;;18.10;99.90;;;;;;4998668;28;20065;-86
2021/08/24 04:55:43;;;;;;;6.40;5.78;;;18.30;99.90;;;;;;4998725;28;20533;-86
2021/08/24 04:58:09;;;;;;;6.40;5.80;;;18.30;99.90;;;;;;4998568;28;20030;-87
2021/08/24 05:00:35;;;;;;;6.60;5.93;;;18.20;99.90;;;;;;4995927;28;20027;-86
2021/08/24 05:03:02;;;;;;;6.70;6.00;;;18.30;99.90;;;;;;4998098;28;20042;-86
2021/08/24 05:05:27;;;;;;;6.82;5.68;;;18.30;99.90;;;;;;4998470;28;20042;-86
2021/08/24 05:07:53;;;;;;;6.63;5.80;;;18.20;99.90;;;;;;4998082;28;20022;-86
2021/08/24 05:10:20;;;;;;;6.18;5.63;;;18.30;99.90;;;;;;4998845;28;20026;-86
2021/08/24 05:12:46;;;;;;;6.90;5.97;;;18.20;99.90;;;;;;4996145;28;20101;-86
2021/08/24 05:15:12;;;;;;;6.35;5.72;;;18.30;99.90;;;;;;4996579;28;20452;-86
2021/08/24 05:17:40;;;;;;;6.10;5.50;;;18.50;99.90;;;;;;4998423;28;20031;-86
2021/08/24 05:20:08;;;;;;;6.70;5.40;;;18.40;99.90;;;;;;4998192;28;20034;-86
2021/08/24 05:22:34;;;;;;;6.20;5.60;;;18.40;99.90;;;;;;4997103;28;20034;-87
2021/08/24 05:24:59;;;;;;;6.57;5.95;;;18.40;99.90;;;;;;4998285;28;20463;-88
2021/08/24 05:27:26;;;;;;;6.65;5.80;;;18.40;99.90;;;;;;4994047;28;20101;-87
2021/08/24 05:29:52;;;;;;;6.10;5.60;;;18.40;99.90;;;;;;4999004;28;20112;-88
2021/08/24 05:32:17;;;;;;;8.00;6.28;;;18.30;99.90;;;;;;4980506;28;20089;-89
2021/08/24 05:34:44;;;;;;;6.63;6.03;;;18.30;99.90;;;;;;4998011;28;20570;-88
2021/08/24 05:37:10;;;;;;;6.28;5.78;;;18.30;99.90;;;;;;4997498;28;20026;-87
2021/08/24 05:39:36;;;;;;;6.35;5.70;;;18.20;99.90;;;;;;4994910;28;20180;-87
2021/08/24 05:42:03;;;;;;;6.68;5.95;;;18.20;99.90;;;;;;4997490;28;20026;-87
2021/08/24 05:44:29;;;;;;;6.82;6.03;;;18.20;99.90;;;;;;4997833;28;20026;-87
2021/08/24 05:46:55;;;;;;;6.38;5.88;;;18.20;99.90;;;;;;4997759;28;20034;-87
2021/08/24 05:49:21;;;;;;;8.73;6.32;;;18.10;99.90;;;;;;4997595;28;20076;-87
2021/08/24 05:51:47;;;;;;;6.70;6.10;;;18.00;99.90;;;;;;4995443;28;20030;-87
2021/08/24 05:54:12;;;;;;;6.60;6.00;;;17.80;99.90;;;;;;4995460;28;20042;-87
2021/08/24 05:56:42;;;;;;;6.88;6.22;;;17.80;99.90;;;;;;4980260;28;20487;-87
2021/08/24 05:59:08;;;;;;;6.45;5.85;;;17.90;99.90;;;;;;4997785;28;20030;-87
2021/08/24 06:01:33;;;;;;;6.68;5.88;;;18.00;99.90;;;;;;4997467;28;20026;-87
2021/08/24 06:04:00;;;;;;;6.18;5.40;;;17.90;99.90;;;;;;4981032;28;20403;-89
2021/08/24 06:06:29;;;;;;;7.78;5.53;;;18.20;99.90;;;;;;5008493;28;20068;-89
2021/08/24 06:08:55;;;;;;;5.97;5.47;;;18.30;99.90;;;;;;4997906;28;20118;-89
2021/08/24 06:11:25;;;;;;;5.97;5.47;;;18.50;99.90;;;;;;4997581;28;20068;-90
2021/08/24 06:13:51;;;;;;;6.15;5.65;;;18.60;99.90;;;;;;4997737;28;20491;-89
2021/08/24 06:16:17;;;;;;;6.35;5.57;;;19.10;99.90;;;;;;4997482;28;20026;-88
2021/08/24 06:18:45;;;;;;;7.07;5.63;;;19.10;99.90;;;;;;4994686;28;20034;-91
2021/08/24 06:21:11;;;;;;;8.18;5.70;;;19.10;99.90;;;;;;4994513;28;20050;-88
2021/08/24 06:23:37;;;;;;;8.48;5.68;;;19.20;99.90;;;;;;4997798;28;20034;-88
2021/08/24 06:26:03;;;;;;;5.95;5.40;;;18.90;99.90;;;;;;4997011;28;20548;-88
2021/08/24 06:28:29;;;;;;;6.57;5.97;;;19.00;99.90;;;;;;4996979;28;20113;-89
2021/08/24 06:30:55;;;;;;;6.35;5.75;;;18.90;99.90;;;;;;4996063;28;20093;-88
2021/08/24 06:33:27;;;;;;;7.20;6.50;;;18.70;99.90;;;;;;4976254;28;20042;-89
2021/08/24 06:35:53;;;;;;;6.15;5.55;;;18.90;99.90;;;;;;4996752;28;20058;-89
2021/08/24 06:38:20;;;;;;;5.90;5.32;;;19.10;99.90;;;;;;4996695;28;20071;-88
2021/08/24 06:40:45;;;;;;;5.85;5.25;;;19.30;99.90;;;;;;4996680;28;20073;-87
2021/08/24 06:43:11;;;;;;;6.50;5.80;;;19.50;99.90;;;;;;4996993;28;20539;-88
2021/08/24 06:45:41;;;;;;;6.47;5.93;;;19.70;99.90;;;;;;4993878;28;20096;-89
2021/08/24 06:48:08;;;;;;;6.75;6.15;;;19.70;99.90;;;;;;4995171;28;20030;-88
2021/08/24 06:50:35;;;;;;;7.43;6.72;;;19.50;99.90;;;;;;4996302;28;20026;-88
2021/08/24 06:53:01;;;;;;;6.57;5.68;;;19.40;99.90;;;;;;4996401;28;20045;-88
2021/08/24 06:55:30;;;;;;;5.60;4.70;;;19.40;99.90;;;;;;4997353;28;20080;-86
2021/08/24 06:58:00;;;;;;;6.90;5.20;;;19.50;99.90;;;;;;4995806;28;20030;-95
2021/08/24 07:00:27;;;;;;;8.45;6.28;;;19.60;99.90;;;;;;4992366;28;20041;-88
2021/08/24 07:02:53;;;;;;;6.18;5.55;;;19.60;99.90;;;;;;4996211;28;20391;-85
2021/08/24 07:05:21;;;;;;;7.60;5.55;;;19.80;99.90;;;;;;4995809;28;20031;-85
2021/08/24 07:07:47;;;;;;;5.78;5.13;;;19.60;99.90;;;;;;4996613;28;20395;-85
2021/08/24 07:10:13;;;;;;;8.13;5.88;;;19.70;99.90;;;;;;4996357;28;20025;-86
2021/08/24 07:12:40;;;;;;;5.70;5.15;;;19.60;99.90;;;;;;4993489;28;20037;-85
2021/08/24 07:15:07;;;;;;;5.53;5.03;;;19.60;99.90;;;;;;4995014;28;20407;-85
2021/08/24 07:17:34;;;;;;;5.90;5.35;;;20.00;99.90;;;;;;4995942;28;20070;-85
2021/08/24 07:19:59;;;;;;;5.82;5.00;;;19.50;99.90;;;;;;4995775;28;20569;-85
2021/08/24 07:22:25;;;;;;;5.93;4.70;;;19.50;99.90;;;;;;4995885;28;20042;-85
2021/08/24 07:24:51;;;;;;;5.07;4.68;;;19.70;99.90;;;;;;4994617;28;20026;-85
2021/08/24 07:27:17;;;;;;;5.50;5.00;;;19.50;99.90;;;;;;4992978;28;20037;-85
2021/08/24 07:29:43;;;;;;;5.32;4.82;;;19.70;99.90;;;;;;4997014;28;20024;-85
2021/08/24 07:32:09;;;;;;;6.03;5.45;;;19.80;99.90;;;;;;4995870;28;20042;-85
2021/08/24 07:34:36;;;;;;;6.00;5.03;;;19.70;99.90;;;;;;4994967;28;20038;-84
2021/08/24 07:37:02;;;;;;;7.57;5.32;;;19.60;99.90;;;;;;4996265;28;20399;-85
2021/08/24 07:39:29;;;;;;;6.10;5.47;;;19.70;99.90;;;;;;4991678;28;20105;-85
2021/08/24 07:41:55;;;;;;;5.18;4.65;;;19.60;99.90;;;;;;5003228;28;20026;-85
2021/08/24 07:44:24;;;;;;;5.47;4.97;;;19.40;99.90;;;;;;4996159;28;20109;-85
2021/08/24 07:46:50;;;;;;;5.25;4.80;;;19.60;99.90;;;;;;4995588;28;20023;-85
2021/08/24 07:49:17;;;;;;;6.80;5.05;;;19.80;99.90;;;;;;4996161;28;20077;-85
2021/08/24 07:51:43;;;;;;;5.30;4.47;;;19.90;99.90;;;;;;4993327;28;20026;-85
2021/08/24 07:54:09;;;;;;;4.43;4.10;;;19.90;99.90;;;;;;4993767;28;20054;-85
2021/08/24 07:56:35;;;;;;;6.63;4.72;;;20.20;99.90;;;;;;4996032;28;20044;-85
2021/08/24 07:59:01;;;;;;;4.85;4.45;;;20.30;99.90;;;;;;4995944;28;20038;-85
2021/08/24 08:01:26;;;;;;;5.78;4.53;;;20.50;99.90;;;;;;4995996;28;20368;-85
2021/08/24 08:03:52;;;;;;;5.07;4.60;;;20.20;99.90;;;;;;4994294;28;20129;-85
2021/08/24 08:06:17;;;;;;;5.60;5.10;;;20.40;99.90;;;;;;4992487;28;20035;-85
2021/08/24 08:08:43;;;;;;;5.57;5.07;;;20.30;99.90;;;;;;4996206;28;20026;-85
2021/08/24 08:11:09;;;;;;;6.18;4.85;;;20.50;99.90;;;;;;4977968;28;20483;-85
2021/08/24 08:13:34;;;;;;;5.75;4.43;;;20.40;99.90;;;;;;4978413;28;20050;-85
2021/08/24 08:16:00;;;;;;;4.57;4.18;;;20.80;99.90;;;;;;4999844;28;20036;-85
2021/08/24 08:18:26;;;;;;;4.38;3.97;;;21.30;99.90;;;;;;4995134;28;20380;-85
2021/08/24 08:20:52;;;;;;;5.30;4.80;;;21.70;99.90;;;;;;4999940;28;20037;-85
2021/08/24 08:23:19;;;;;;;5.28;4.80;;;21.70;99.90;;;;;;4999265;28;20035;-85
2021/08/24 08:25:45;;;;;;;4.65;4.25;;;21.60;99.90;;;;;;4999177;28;20443;-85
2021/08/24 08:28:11;;;;;;;5.72;4.38;;;21.70;99.90;;;;;;4999238;28;20120;-85
2021/08/24 08:30:37;;;;;;;5.53;5.03;;;21.60;99.90;;;;;;4996681;28;20030;-85
2021/08/24 08:33:04;;;;;;;4.55;4.18;;;21.70;99.90;;;;;;4997929;28;20054;-85
2021/08/24 08:35:31;;;;;;;5.05;4.40;;;21.80;99.90;;;;;;4998123;28;20574;-85
2021/08/24 08:37:57;;;;;;;5.22;4.05;;;22.30;99.90;;;;;;4999806;28;20380;-85
2021/08/24 08:40:54;;;;;;;4.82;4.43;;;22.60;99.90;;;;;;4998901;28;20033;-85
2021/08/24 08:43:59;;;;;;;5.50;5.00;;;22.30;99.90;;;;;;4998798;28;20030;-85
2021/08/24 08:46:46;;;;;;;5.65;5.13;;;21.70;99.90;;;;;;4998373;28;20054;-85
2021/08/24 08:49:34;;;;;;;5.03;4.63;;;21.80;99.90;;;;;;4998644;28;20029;-84
2021/08/24 08:52:28;;;;;;;4.85;4.38;;;22.10;99.90;;;;;;4998885;28;20058;-85
2021/08/24 08:55:23;;;;;;;4.93;4.53;;;22.20;99.90;;;;;;4985688;28;20041;-85
2021/08/24 08:58:08;;;;;;;4.50;4.10;;;22.00;99.90;;;;;;4984405;28;20121;-85
2021/08/24 09:00:54;;;;;;;6.05;5.00;;;21.70;99.90;;;;;;4980181;28;20488;-85
2021/08/24 09:03:32;;;;;;;5.18;4.78;;;21.80;99.90;;;;;;4995608;28;20526;-86
2021/08/24 09:05:58;;;;;;;5.75;5.15;;;21.70;99.90;;;;;;5007197;28;20030;-85
2021/08/24 09:08:26;;;;;;;5.90;4.90;;;21.70;99.90;;;;;;4998310;28;20038;-85
2021/08/24 09:10:54;;;;;;;5.53;4.78;;;21.70;99.90;;;;;;4998426;28;20018;-85
2021/08/24 09:13:43;;;;;;;5.20;4.18;;;21.90;99.90;;;;;;4998577;28;20491;-85
2021/08/24 09:16:28;;;;;;;5.35;4.95;;;22.20;99.90;;;;;;4998424;28;20083;-85
2021/08/24 09:19:17;;;;;;;6.38;5.55;;;22.00;99.90;;;;;;4997329;28;20021;-85
2021/08/24 09:21:45;;;;;;;5.07;4.65;;;21.70;99.90;;;;;;4983086;28;20030;-85
2021/08/24 09:24:17;;;;;;;5.60;5.07;;;21.40;99.90;;;;;;4996506;28;20105;-85
2021/08/24 09:27:03;;;;;;;6.20;5.60;;;21.60;99.90;;;;;;4978742;28;20026;-85
2021/08/24 09:29:34;;;;;;;5.25;4.72;;;21.40;99.90;;;;;;4997809;28;20030;-85
2021/08/24 09:32:02;;;;;;;6.05;5.43;;;21.10;99.90;;;;;;4998295;28;20081;-85
2021/08/24 09:34:32;;;;;;;5.50;5.00;;;20.90;99.90;;;;;;4997763;28;20081;-85
2021/08/24 09:36:58;;;;;;;5.43;4.93;;;21.00;99.90;;;;;;4997952;28;20045;-85
2021/08/24 09:39:49;;;;;;;5.10;4.40;;;21.40;99.90;;;;;;4993961;28;20399;-85
2021/08/24 09:42:24;;;;;;;4.80;4.32;;;21.30;99.90;;;;;;4983363;28;20066;-85
2021/08/24 09:44:50;;;;;;;5.28;4.80;;;22.00;99.90;;;;;;4998115;28;20373;-85
2021/08/24 09:47:17;;;;;;;4.55;4.15;;;22.60;99.90;;;;;;4997966;28;20029;-85
2021/08/24 09:49:44;;;;;;;4.88;4.45;;;23.20;99.90;;;;;;4998175;28;20038;-85
2021/08/24 09:52:12;;;;;;;4.82;4.43;;;23.90;99.90;;;;;;4997663;28;20469;-85
2021/08/24 09:54:52;;;;;;;4.97;4.47;;;24.50;99.90;;;;;;4994389;28;20045;-84
2021/08/24 09:57:25;;;;;;;8.07;7.28;;;24.70;99.90;;;;;;4994407;28;20105;-85
2021/08/24 09:59:59;;;;;;;5.32;4.82;;;25.20;99.90;;;;;;4998474;28;20041;-85
2021/08/24 10:02:42;;;;;;;5.53;5.00;;;25.60;99.90;;;;;;4997911;28;20395;-85
2021/08/24 10:05:10;;;;;;;5.13;4.70;;;25.50;99.90;;;;;;4979708;28;20376;-85
2021/08/24 10:07:45;;;;;;;4.15;3.85;;;25.50;99.90;;;;;;4997443;28;20026;-85
2021/08/24 10:10:24;;;;;;;4.80;4.40;;;25.40;99.90;;;;;;4997359;28;20402;-85
2021/08/24 10:12:53;;;;;;;5.70;5.15;;;24.90;99.90;;;;;;4995313;28;20034;-85
2021/08/24 10:15:21;;;;;;;4.30;3.90;;;25.20;99.90;;;;;;4994256;28;20038;-85
2021/08/24 10:17:55;;;;;;;4.40;4.00;;;25.00;99.90;;;;;;4998219;28;20058;-85
2021/08/24 10:20:29;;;;;;;5.80;4.70;;;25.30;99.90;;;;;;4997253;28;20030;-85
2021/08/24 10:22:55;;;;;;;4.95;4.45;;;25.10;99.90;;;;;;4997304;28;20033;-85
2021/08/24 10:25:30;;;;;;;5.25;4.50;;;24.80;99.90;;;;;;4996889;28;20026;-85
2021/08/24 10:28:07;;;;;;;5.22;4.72;;;24.80;99.90;;;;;;4996162;28;20398;-85
2021/08/24 10:30:46;;;;;;;5.72;4.22;;;24.90;99.90;;;;;;4978437;28;20446;-85
2021/08/24 10:33:34;;;;;;;4.65;4.22;;;26.40;99.90;;;;;;4995073;28;20495;-85
2021/08/24 10:36:22;;;;;;;4.53;4.00;;;27.00;99.90;;;;;;5004979;28;20442;-85
2021/08/24 10:39:15;;;;;;;4.50;4.10;;;26.80;99.90;;;;;;4996664;28;20023;-85
2021/08/24 10:41:47;;;;;;;4.28;3.88;;;28.20;99.90;;;;;;4995875;28;20550;-86
2021/08/24 10:44:20;;;;;;;4.25;3.85;;;28.70;99.90;;;;;;4996684;28;20150;-85
2021/08/24 10:46:52;;;;;;;3.97;3.65;;;31.80;99.90;;;;;;4996545;28;20034;-84
2021/08/24 10:49:18;;;;;;;6.00;4.20;;;33.90;99.90;;;;;;4996685;28;20029;-85
2021/08/24 10:51:53;;;;;;;5.95;4.63;;;31.10;99.90;;;;;;4994609;28;20029;-85
2021/08/24 10:54:42;;;;;;;4.32;3.92;;;28.90;99.90;;;;;;4993268;28;20045;-85
2021/08/24 10:57:20;;;;;;;4.65;4.28;;;26.90;99.90;;;;;;5005142;28;20033;-85
2021/08/24 11:00:15;;;;;;;4.72;4.30;;;25.20;99.90;;;;;;4996214;28;20399;-86
2021/08/24 11:02:41;;;;;;;4.55;4.07;;;28.50;99.90;;;;;;4994923;28;20053;-85
2021/08/24 11:05:25;;;;;;;4.68;4.13;;;27.80;99.90;;;;;;4978843;28;20480;-85
2021/08/24 11:08:08;;;;;;;4.13;3.70;;;26.70;99.90;;;;;;4996253;28;20088;-85
2021/08/24 11:11:17;;;;;;;3.92;3.63;;;25.60;99.90;;;;;;4995689;28;20030;-85
2021/08/24 11:14:06;;;;;;;5.93;3.60;;;25.40;99.90;;;;;;4951039;29;20553;-85
2021/08/24 11:17:04;;;;;;;4.22;3.83;;;26.50;99.90;;;;;;4951270;29;20091;-85
2021/08/24 11:19:39;;;;;;;4.00;3.67;;;26.30;99.90;;;;;;4951059;29;20031;-85
2021/08/24 11:22:17;;;;;;;3.80;3.50;;;28.10;99.90;;;;;;4950979;29;20035;-85
2021/08/24 11:25:07;;;;;;;3.72;3.42;;;31.40;99.90;;;;;;4950702;29;20106;-85
2021/08/24 11:27:41;;;;;;;3.85;3.55;;;31.50;99.90;;;;;;4936272;29;20050;-84
2021/08/24 11:30:30;;;;;;;3.85;3.55;;;31.70;99.90;;;;;;4951054;29;20056;-85
2021/08/24 11:33:07;;;;;;;3.88;3.58;;;30.40;99.90;;;;;;4947489;29;20047;-85
2021/08/24 11:35:51;;;;;;;3.70;3.40;;;28.60;99.90;;;;;;4938069;29;20058;-85
2021/08/24 11:38:27;;;;;;;3.67;3.13;;;27.40;99.90;;;;;;4950286;29;20036;-85
2021/08/24 11:41:07;;;;;;;4.25;3.50;;;27.10;99.90;;;;;;4950482;29;20070;-85
2021/08/24 11:43:49;;;;;;;4.47;4.07;;;27.20;99.90;;;;;;4946544;29;20024;-85
2021/08/24 11:46:36;;;;;;;4.43;3.05;;;26.60;99.90;;;;;;4941549;29;20082;-85
2021/08/24 11:49:19;;;;;;;3.63;3.33;;;26.30;99.90;;;;;;4995281;28;20037;-84
2021/08/24 11:51:51;;;;;;;3.78;3.38;;;25.80;99.90;;;;;;4980222;28;20076;-85
2021/08/24 11:54:34;;;;;;;3.72;3.42;;;25.50;99.90;;;;;;4992753;28;20037;-85
2021/08/24 11:57:11;;;;;;;3.50;3.20;;;25.50;99.90;;;;;;5004075;28;20026;-84
2021/08/24 11:59:42;;;;;;;3.97;3.42;;;25.10;99.90;;;;;;4996330;28;20097;-85
2021/08/24 12:02:17;;;;;;;3.50;3.20;;;24.90;99.90;;;;;;4995690;28;20037;-85
2021/08/24 12:04:45;;;;;;;4.55;3.60;;;26.20;99.90;;;;;;4995712;28;20038;-85
2021/08/24 12:07:35;;;;;;;3.58;2.85;;;26.70;99.90;;;;;;4996043;28;20022;-85
2021/08/24 12:10:17;;;;;;;4.75;3.38;;;27.30;99.90;;;;;;4994556;28;20065;-85
2021/08/24 12:12:50;;;;;;;3.55;3.25;;;31.30;99.90;;;;;;4979147;28;20294;-85
2021/08/24 12:15:36;;;;;;;3.53;3.22;;;29.60;99.90;;;;;;4993673;28;20026;-85
2021/08/24 12:18:07;;;;;;;3.40;3.10;;;32.30;99.90;;;;;;5003972;28;20505;-85
2021/08/24 12:20:56;;;;;;;5.32;4.35;;;30.50;99.90;;;;;;4995153;28;20030;-85
2021/08/24 12:23:42;;;;;;;3.50;2.78;;;29.40;99.90;;;;;;4994977;28;20030;-85
2021/08/24 12:26:43;;;;;;;3.20;2.97;;;33.40;99.90;;;;;;4995351;28;20029;-85
2021/08/24 12:29:31;;;;;;;3.85;3.45;;;32.40;99.90;;;;;;4950483;29;20114;-85
2021/08/24 12:31:57;;;;;;;4.45;3.00;;;32.60;99.90;;;;;;4950335;29;20051;-85
2021/08/24 12:34:35;;;;;;;3.20;2.90;;;32.70;99.90;;;;;;4950156;29;20147;-85
2021/08/24 12:37:20;;;;;;;3.25;2.50;;;32.60;99.90;;;;;;4949952;29;20051;-85
2021/08/24 12:39:46;;;;;;;3.63;2.80;;;33.00;99.90;;;;;;4950261;29;20035;-85
2021/08/24 12:42:28;;;;;;;3.47;2.60;;;32.90;99.90;;;;;;4950268;29;20488;-85
2021/08/24 12:44:59;;;;;;;3.38;2.58;;;32.60;99.90;;;;;;4950955;29;20051;-85
2021/08/24 12:47:38;;;;;;;4.15;2.97;;;31.90;99.90;;;;;;4950033;29;20035;-85
2021/08/24 12:50:07;;;;;;;2.92;2.72;;;30.50;99.90;;;;;;4950124;29;20051;-85
2021/08/24 12:52:36;;;;;;;3.50;3.15;;;29.20;99.90;;;;;;4949702;29;20044;-85
2021/08/24 12:55:31;;;;;;;4.75;3.10;;;28.60;99.90;;;;;;4949960;29;20528;-83
2021/08/24 12:58:17;;;;;;;3.30;3.00;;;30.20;99.90;;;;;;4893432;29;20040;-84
2021/08/24 13:01:21;;;;;;;4.22;2.60;;;31.00;99.90;;;;;;4888022;29;20037;-85
2021/08/24 13:04:21;;;;;;;2.85;2.58;;;32.60;99.90;;;;;;4911519;29;20124;-85
2021/08/24 13:07:08;;;;;;;3.38;2.95;;;31.90;99.90;;;;;;4883813;29;20045;-84
2021/08/24 13:09:36;;;;;;;3.50;3.20;;;31.50;99.90;;;;;;4882204;29;20085;-84
2021/08/24 13:12:15;;;;;;;3.20;2.97;;;31.30;99.90;;;;;;4896659;29;20068;-84
2021/08/24 13:14:47;;;;;;;3.10;2.90;;;32.20;99.90;;;;;;4895143;29;20052;-84